sensor_id;sensor_type;location;lat;lon;timestamp;P1;durP1;ratioP1;P2;durP2;ratioP2
51971;SDS011;37991;49.662;10.060;2022-09-17T00:00:31;1.52;;;1.00;;
51971;SDS011;37991;49.662;10.060;2022-09-17T00:02:57;4.47;;;1.10;;
51971;SDS011;37991;49.662;10.060;2022-09-17T00:05:22;3.08;;;1.13;;
51971;SDS011;37991;49.662;10.060;2022-09-17T00:07:51;3.30;;;1.45;;
51971;SDS011;37991;49.662;10.060;2022-09-17T00:10:17;3.97;;;1.55;;
51971;SDS011;37991;49.662;10.060;2022-09-17T00:12:44;4.10;;;1.60;;
51971;SDS011;37991;49.662;10.060;2022-09-17T00:15:10;3.83;;;1.42;;
51971;SDS011;37991;49.662;10.060;2022-09-17T00:17:36;3.85;;;1.55;;
51971;SDS011;37991;49.662;10.060;2022-09-17T00:20:02;2.47;;;1.45;;
51971;SDS011;37991;49.662;10.060;2022-09-17T00:22:28;1.05;;;1.05;;
51971;SDS011;37991;49.662;10.060;2022-09-17T00:24:54;1.88;;;1.10;;
51971;SDS011;37991;49.662;10.060;2022-09-17T00:27:19;4.50;;;1.35;;
51971;SDS011;37991;49.662;10.060;2022-09-17T00:29:46;1.80;;;1.10;;
51971;SDS011;37991;49.662;10.060;2022-09-17T00:32:12;1.90;;;1.30;;
51971;SDS011;37991;49.662;10.060;2022-09-17T00:34:37;3.30;;;1.17;;
51971;SDS011;37991;49.662;10.060;2022-09-17T00:37:02;1.55;;;1.10;;
51971;SDS011;37991;49.662;10.060;2022-09-17T00:39:28;2.67;;;1.27;;
51971;SDS011;37991;49.662;10.060;2022-09-17T00:41:53;4.05;;;1.45;;
51971;SDS011;37991;49.662;10.060;2022-09-17T00:47:22;6.88;;;1.20;;
51971;SDS011;37991;49.662;10.060;2022-09-17T00:52:32;0.75;;;0.75;;
51971;SDS011;37991;49.662;10.060;2022-09-17T00:55:03;2.35;;;1.08;;
51971;SDS011;37991;49.662;10.060;2022-09-17T00:57:37;2.65;;;0.95;;
51971;SDS011;37991;49.662;10.060;2022-09-17T01:00:04;3.58;;;1.08;;
51971;SDS011;37991;49.662;10.060;2022-09-17T01:02:31;3.60;;;1.10;;
51971;SDS011;37991;49.662;10.060;2022-09-17T01:04:57;3.45;;;1.17;;
51971;SDS011;37991;49.662;10.060;2022-09-17T01:07:28;1.40;;;0.90;;
51971;SDS011;37991;49.662;10.060;2022-09-17T01:10:13;5.60;;;1.05;;
51971;SDS011;37991;49.662;10.060;2022-09-17T01:15:48;3.38;;;1.10;;
51971;SDS011;37991;49.662;10.060;2022-09-17T01:18:37;2.60;;;1.15;;
51971;SDS011;37991;49.662;10.060;2022-09-17T01:21:36;4.55;;;1.50;;
51971;SDS011;37991;49.662;10.060;2022-09-17T01:24:15;4.03;;;1.35;;
51971;SDS011;37991;49.662;10.060;2022-09-17T01:32:41;1.63;;;1.00;;
51971;SDS011;37991;49.662;10.060;2022-09-17T01:35:11;2.17;;;1.05;;
51971;SDS011;37991;49.662;10.060;2022-09-17T01:45:49;1.30;;;1.20;;
51971;SDS011;37991;49.662;10.060;2022-09-17T01:48:20;4.38;;;1.00;;
51971;SDS011;37991;49.662;10.060;2022-09-17T01:51:04;2.65;;;0.90;;
51971;SDS011;37991;49.662;10.060;2022-09-17T01:56:35;3.00;;;1.02;;
51971;SDS011;37991;49.662;10.060;2022-09-17T01:59:10;1.77;;;1.10;;
51971;SDS011;37991;49.662;10.060;2022-09-17T02:01:40;3.58;;;1.20;;
51971;SDS011;37991;49.662;10.060;2022-09-17T02:04:10;3.38;;;1.23;;
51971;SDS011;37991;49.662;10.060;2022-09-17T02:06:42;1.85;;;0.88;;
51971;SDS011;37991;49.662;10.060;2022-09-17T02:09:22;1.55;;;1.00;;
51971;SDS011;37991;49.662;10.060;2022-09-17T02:11:52;2.15;;;0.98;;
51971;SDS011;37991;49.662;10.060;2022-09-17T02:14:24;3.85;;;1.20;;
51971;SDS011;37991;49.662;10.060;2022-09-17T02:16:56;2.70;;;0.90;;
51971;SDS011;37991;49.662;10.060;2022-09-17T02:19:30;2.60;;;1.35;;
51971;SDS011;37991;49.662;10.060;2022-09-17T02:22:18;1.83;;;1.15;;
51971;SDS011;37991;49.662;10.060;2022-09-17T02:24:54;4.95;;;1.38;;
51971;SDS011;37991;49.662;10.060;2022-09-17T02:27:50;3.03;;;1.45;;
51971;SDS011;37991;49.662;10.060;2022-09-17T02:30:21;2.85;;;1.25;;
51971;SDS011;37991;49.662;10.060;2022-09-17T02:32:47;4.03;;;1.80;;
51971;SDS011;37991;49.662;10.060;2022-09-17T02:35:13;3.05;;;1.60;;
51971;SDS011;37991;49.662;10.060;2022-09-17T02:37:40;5.28;;;1.38;;
51971;SDS011;37991;49.662;10.060;2022-09-17T02:40:06;5.47;;;1.63;;
51971;SDS011;37991;49.662;10.060;2022-09-17T02:42:42;2.15;;;1.70;;
51971;SDS011;37991;49.662;10.060;2022-09-17T02:48:13;5.05;;;1.52;;
51971;SDS011;37991;49.662;10.060;2022-09-17T02:50:58;5.00;;;1.42;;
51971;SDS011;37991;49.662;10.060;2022-09-17T02:53:57;4.40;;;1.17;;
51971;SDS011;37991;49.662;10.060;2022-09-17T02:56:54;2.92;;;1.27;;
51971;SDS011;37991;49.662;10.060;2022-09-17T02:59:37;3.13;;;1.40;;
51971;SDS011;37991;49.662;10.060;2022-09-17T03:02:20;6.03;;;1.50;;
51971;SDS011;37991;49.662;10.060;2022-09-17T03:04:50;2.33;;;1.40;;
51971;SDS011;37991;49.662;10.060;2022-09-17T03:07:17;3.40;;;1.20;;
51971;SDS011;37991;49.662;10.060;2022-09-17T03:09:44;5.03;;;1.70;;
51971;SDS011;37991;49.662;10.060;2022-09-17T03:12:10;3.80;;;1.40;;
51971;SDS011;37991;49.662;10.060;2022-09-17T03:14:36;2.30;;;1.33;;
51971;SDS011;37991;49.662;10.060;2022-09-17T03:17:02;3.83;;;1.23;;
51971;SDS011;37991;49.662;10.060;2022-09-17T03:19:28;4.95;;;1.48;;
51971;SDS011;37991;49.662;10.060;2022-09-17T03:21:53;4.95;;;1.30;;
51971;SDS011;37991;49.662;10.060;2022-09-17T03:24:19;4.80;;;1.17;;
51971;SDS011;37991;49.662;10.060;2022-09-17T03:26:44;3.63;;;1.27;;
51971;SDS011;37991;49.662;10.060;2022-09-17T03:29:11;4.40;;;1.38;;
51971;SDS011;37991;49.662;10.060;2022-09-17T03:31:37;3.88;;;1.40;;
51971;SDS011;37991;49.662;10.060;2022-09-17T03:34:03;2.88;;;1.20;;
51971;SDS011;37991;49.662;10.060;2022-09-17T03:36:28;6.43;;;1.38;;
51971;SDS011;37991;49.662;10.060;2022-09-17T03:38:54;6.40;;;1.20;;
51971;SDS011;37991;49.662;10.060;2022-09-17T03:41:20;7.03;;;1.67;;
51971;SDS011;37991;49.662;10.060;2022-09-17T03:43:45;5.75;;;1.25;;
51971;SDS011;37991;49.662;10.060;2022-09-17T03:46:11;2.67;;;1.40;;
51971;SDS011;37991;49.662;10.060;2022-09-17T03:48:36;4.70;;;1.25;;
51971;SDS011;37991;49.662;10.060;2022-09-17T03:51:03;2.95;;;1.25;;
51971;SDS011;37991;49.662;10.060;2022-09-17T03:53:29;14.00;;;2.30;;
51971;SDS011;37991;49.662;10.060;2022-09-17T03:55:56;2.25;;;1.10;;
51971;SDS011;37991;49.662;10.060;2022-09-17T03:58:26;2.83;;;1.27;;
51971;SDS011;37991;49.662;10.060;2022-09-17T04:00:53;4.30;;;0.98;;
51971;SDS011;37991;49.662;10.060;2022-09-17T04:03:22;9.00;;;1.30;;
51971;SDS011;37991;49.662;10.060;2022-09-17T04:05:48;3.10;;;1.10;;
51971;SDS011;37991;49.662;10.060;2022-09-17T04:08:13;2.88;;;1.17;;
51971;SDS011;37991;49.662;10.060;2022-09-17T04:10:39;5.95;;;1.98;;
51971;SDS011;37991;49.662;10.060;2022-09-17T04:13:04;2.72;;;1.40;;
51971;SDS011;37991;49.662;10.060;2022-09-17T04:15:29;5.53;;;1.70;;
51971;SDS011;37991;49.662;10.060;2022-09-17T04:17:55;2.20;;;1.17;;
51971;SDS011;37991;49.662;10.060;2022-09-17T04:20:24;6.13;;;1.35;;
51971;SDS011;37991;49.662;10.060;2022-09-17T04:22:50;3.65;;;1.38;;
51971;SDS011;37991;49.662;10.060;2022-09-17T04:25:16;2.35;;;1.02;;
51971;SDS011;37991;49.662;10.060;2022-09-17T04:27:42;2.50;;;1.35;;
51971;SDS011;37991;49.662;10.060;2022-09-17T04:30:08;1.48;;;1.35;;
51971;SDS011;37991;49.662;10.060;2022-09-17T04:32:34;5.50;;;1.40;;
51971;SDS011;37991;49.662;10.060;2022-09-17T04:35:00;3.97;;;1.58;;
51971;SDS011;37991;49.662;10.060;2022-09-17T04:37:25;6.60;;;1.20;;
51971;SDS011;37991;49.662;10.060;2022-09-17T04:39:50;2.42;;;1.20;;
51971;SDS011;37991;49.662;10.060;2022-09-17T04:42:16;4.90;;;1.30;;
51971;SDS011;37991;49.662;10.060;2022-09-17T04:44:42;4.95;;;1.52;;
51971;SDS011;37991;49.662;10.060;2022-09-17T04:47:07;4.65;;;2.08;;
51971;SDS011;37991;49.662;10.060;2022-09-17T04:49:33;4.00;;;1.42;;
51971;SDS011;37991;49.662;10.060;2022-09-17T04:51:58;2.78;;;1.80;;
51971;SDS011;37991;49.662;10.060;2022-09-17T04:54:24;3.58;;;1.52;;
51971;SDS011;37991;49.662;10.060;2022-09-17T04:56:49;5.25;;;1.65;;
51971;SDS011;37991;49.662;10.060;2022-09-17T04:59:14;5.15;;;1.60;;
51971;SDS011;37991;49.662;10.060;2022-09-17T05:01:40;8.60;;;1.80;;
51971;SDS011;37991;49.662;10.060;2022-09-17T05:04:07;7.97;;;1.85;;
51971;SDS011;37991;49.662;10.060;2022-09-17T05:06:32;3.63;;;1.75;;
51971;SDS011;37991;49.662;10.060;2022-09-17T05:08:58;4.82;;;1.73;;
51971;SDS011;37991;49.662;10.060;2022-09-17T05:11:23;4.75;;;2.08;;
51971;SDS011;37991;49.662;10.060;2022-09-17T05:13:48;6.47;;;2.42;;
51971;SDS011;37991;49.662;10.060;2022-09-17T05:16:14;3.38;;;1.80;;
51971;SDS011;37991;49.662;10.060;2022-09-17T05:18:39;5.10;;;1.75;;
51971;SDS011;37991;49.662;10.060;2022-09-17T05:21:04;9.55;;;2.00;;
51971;SDS011;37991;49.662;10.060;2022-09-17T05:23:30;5.30;;;1.95;;
51971;SDS011;37991;49.662;10.060;2022-09-17T05:25:58;2.88;;;1.55;;
51971;SDS011;37991;49.662;10.060;2022-09-17T05:28:24;4.28;;;1.80;;
51971;SDS011;37991;49.662;10.060;2022-09-17T05:30:50;2.83;;;1.70;;
51971;SDS011;37991;49.662;10.060;2022-09-17T05:33:15;6.53;;;1.90;;
51971;SDS011;37991;49.662;10.060;2022-09-17T05:35:41;5.35;;;1.83;;
51971;SDS011;37991;49.662;10.060;2022-09-17T05:38:08;3.50;;;1.77;;
51971;SDS011;37991;49.662;10.060;2022-09-17T05:40:34;4.15;;;1.88;;
51971;SDS011;37991;49.662;10.060;2022-09-17T05:43:00;6.15;;;1.75;;
51971;SDS011;37991;49.662;10.060;2022-09-17T05:45:27;4.40;;;2.08;;
51971;SDS011;37991;49.662;10.060;2022-09-17T05:47:56;6.28;;;2.13;;
51971;SDS011;37991;49.662;10.060;2022-09-17T05:50:22;5.43;;;1.75;;
51971;SDS011;37991;49.662;10.060;2022-09-17T05:52:48;8.65;;;2.22;;
51971;SDS011;37991;49.662;10.060;2022-09-17T05:55:13;2.85;;;1.95;;
51971;SDS011;37991;49.662;10.060;2022-09-17T05:57:39;3.53;;;1.90;;
51971;SDS011;37991;49.662;10.060;2022-09-17T06:00:04;2.15;;;1.67;;
51971;SDS011;37991;49.662;10.060;2022-09-17T06:02:37;3.90;;;2.03;;
51971;SDS011;37991;49.662;10.060;2022-09-17T06:05:03;15.82;;;2.22;;
51971;SDS011;37991;49.662;10.060;2022-09-17T06:07:29;7.57;;;2.28;;
51971;SDS011;37991;49.662;10.060;2022-09-17T06:09:54;7.07;;;2.50;;
51971;SDS011;37991;49.662;10.060;2022-09-17T06:12:20;5.10;;;2.10;;
51971;SDS011;37991;49.662;10.060;2022-09-17T06:14:46;5.00;;;2.55;;
51971;SDS011;37991;49.662;10.060;2022-09-17T06:17:11;6.03;;;2.63;;
51971;SDS011;37991;49.662;10.060;2022-09-17T06:19:37;4.55;;;2.03;;
51971;SDS011;37991;49.662;10.060;2022-09-17T06:22:02;6.78;;;2.55;;
51971;SDS011;37991;49.662;10.060;2022-09-17T06:24:29;3.30;;;1.85;;
51971;SDS011;37991;49.662;10.060;2022-09-17T06:26:54;3.13;;;2.00;;
51971;SDS011;37991;49.662;10.060;2022-09-17T06:29:20;5.05;;;2.17;;
51971;SDS011;37991;49.662;10.060;2022-09-17T06:31:46;5.50;;;1.77;;
51971;SDS011;37991;49.662;10.060;2022-09-17T06:34:12;3.05;;;1.80;;
51971;SDS011;37991;49.662;10.060;2022-09-17T06:36:38;4.50;;;2.00;;
51971;SDS011;37991;49.662;10.060;2022-09-17T06:39:03;4.22;;;1.85;;
51971;SDS011;37991;49.662;10.060;2022-09-17T06:41:28;2.47;;;1.63;;
51971;SDS011;37991;49.662;10.060;2022-09-17T06:43:54;2.20;;;1.40;;
51971;SDS011;37991;49.662;10.060;2022-09-17T06:46:20;6.18;;;2.08;;
51971;SDS011;37991;49.662;10.060;2022-09-17T06:48:45;3.90;;;2.05;;
51971;SDS011;37991;49.662;10.060;2022-09-17T06:51:11;5.97;;;1.83;;
51971;SDS011;37991;49.662;10.060;2022-09-17T06:53:38;5.20;;;1.73;;
51971;SDS011;37991;49.662;10.060;2022-09-17T06:56:05;4.90;;;1.67;;
51971;SDS011;37991;49.662;10.060;2022-09-17T06:58:32;3.70;;;1.73;;
51971;SDS011;37991;49.662;10.060;2022-09-17T07:00:58;1.65;;;1.48;;
51971;SDS011;37991;49.662;10.060;2022-09-17T07:03:27;2.17;;;1.60;;
51971;SDS011;37991;49.662;10.060;2022-09-17T07:05:53;5.82;;;1.67;;
51971;SDS011;37991;49.662;10.060;2022-09-17T07:08:19;3.15;;;1.65;;
51971;SDS011;37991;49.662;10.060;2022-09-17T07:10:46;2.20;;;1.45;;
51971;SDS011;37991;49.662;10.060;2022-09-17T07:13:12;3.42;;;1.73;;
51971;SDS011;37991;49.662;10.060;2022-09-17T07:15:37;3.08;;;1.70;;
51971;SDS011;37991;49.662;10.060;2022-09-17T07:18:06;2.55;;;1.65;;
51971;SDS011;37991;49.662;10.060;2022-09-17T07:20:36;5.28;;;1.98;;
51971;SDS011;37991;49.662;10.060;2022-09-17T07:23:02;4.10;;;1.70;;
51971;SDS011;37991;49.662;10.060;2022-09-17T07:25:27;5.80;;;1.98;;
51971;SDS011;37991;49.662;10.060;2022-09-17T07:27:52;3.47;;;1.60;;
51971;SDS011;37991;49.662;10.060;2022-09-17T07:30:18;3.53;;;2.03;;
51971;SDS011;37991;49.662;10.060;2022-09-17T07:32:44;1.58;;;1.48;;
51971;SDS011;37991;49.662;10.060;2022-09-17T07:35:10;3.60;;;1.92;;
51971;SDS011;37991;49.662;10.060;2022-09-17T07:37:36;4.65;;;1.77;;
51971;SDS011;37991;49.662;10.060;2022-09-17T07:40:02;4.85;;;2.25;;
51971;SDS011;37991;49.662;10.060;2022-09-17T07:42:29;3.63;;;1.77;;
51971;SDS011;37991;49.662;10.060;2022-09-17T07:44:55;5.97;;;2.13;;
51971;SDS011;37991;49.662;10.060;2022-09-17T07:47:21;4.10;;;1.90;;
51971;SDS011;37991;49.662;10.060;2022-09-17T07:49:46;2.20;;;1.80;;
51971;SDS011;37991;49.662;10.060;2022-09-17T07:52:12;3.67;;;1.92;;
51971;SDS011;37991;49.662;10.060;2022-09-17T07:54:37;4.00;;;1.55;;
51971;SDS011;37991;49.662;10.060;2022-09-17T07:57:02;8.05;;;2.17;;
51971;SDS011;37991;49.662;10.060;2022-09-17T07:59:28;5.85;;;1.88;;
51971;SDS011;37991;49.662;10.060;2022-09-17T08:01:54;3.42;;;1.85;;
51971;SDS011;37991;49.662;10.060;2022-09-17T08:04:19;13.95;;;2.13;;
51971;SDS011;37991;49.662;10.060;2022-09-17T08:06:45;5.43;;;2.10;;
51971;SDS011;37991;49.662;10.060;2022-09-17T08:09:12;2.40;;;1.50;;
51971;SDS011;37991;49.662;10.060;2022-09-17T08:11:39;4.88;;;1.80;;
51971;SDS011;37991;49.662;10.060;2022-09-17T08:14:05;5.10;;;1.83;;
51971;SDS011;37991;49.662;10.060;2022-09-17T08:16:31;3.45;;;1.88;;
51971;SDS011;37991;49.662;10.060;2022-09-17T08:18:56;5.05;;;1.58;;
51971;SDS011;37991;49.662;10.060;2022-09-17T08:21:22;3.83;;;1.90;;
51971;SDS011;37991;49.662;10.060;2022-09-17T08:23:48;7.65;;;2.38;;
51971;SDS011;37991;49.662;10.060;2022-09-17T08:26:23;2.05;;;1.60;;
51971;SDS011;37991;49.662;10.060;2022-09-17T08:28:50;6.30;;;1.52;;
51971;SDS011;37991;49.662;10.060;2022-09-17T08:31:19;1.92;;;1.48;;
51971;SDS011;37991;49.662;10.060;2022-09-17T08:33:46;3.05;;;1.80;;
51971;SDS011;37991;49.662;10.060;2022-09-17T08:36:12;3.53;;;1.55;;
51971;SDS011;37991;49.662;10.060;2022-09-17T08:38:39;4.78;;;1.60;;
51971;SDS011;37991;49.662;10.060;2022-09-17T08:43:35;6.60;;;1.67;;
51971;SDS011;37991;49.662;10.060;2022-09-17T08:46:09;7.32;;;1.88;;
51971;SDS011;37991;49.662;10.060;2022-09-17T08:48:55;7.68;;;2.25;;
51971;SDS011;37991;49.662;10.060;2022-09-17T08:51:47;4.75;;;1.52;;
51971;SDS011;37991;49.662;10.060;2022-09-17T09:00:05;3.65;;;2.13;;
51971;SDS011;37991;49.662;10.060;2022-09-17T09:03:15;7.57;;;1.75;;
51971;SDS011;37991;49.662;10.060;2022-09-17T09:06:02;12.07;;;2.58;;
51971;SDS011;37991;49.662;10.060;2022-09-17T09:08:31;2.97;;;1.60;;
51971;SDS011;37991;49.662;10.060;2022-09-17T09:11:02;7.80;;;2.20;;
51971;SDS011;37991;49.662;10.060;2022-09-17T09:13:33;6.32;;;2.08;;
51971;SDS011;37991;49.662;10.060;2022-09-17T09:18:47;5.93;;;2.28;;
51971;SDS011;37991;49.662;10.060;2022-09-17T09:23:51;7.82;;;2.42;;
51971;SDS011;37991;49.662;10.060;2022-09-17T09:26:35;3.97;;;1.88;;
51971;SDS011;37991;49.662;10.060;2022-09-17T09:34:45;7.90;;;2.42;;
51971;SDS011;37991;49.662;10.060;2022-09-17T09:37:14;7.43;;;2.22;;
51971;SDS011;37991;49.662;10.060;2022-09-17T09:39:48;4.55;;;2.25;;
51971;SDS011;37991;49.662;10.060;2022-09-17T09:42:18;6.38;;;2.28;;
51971;SDS011;37991;49.662;10.060;2022-09-17T09:44:52;7.57;;;2.20;;
51971;SDS011;37991;49.662;10.060;2022-09-17T09:47:23;4.07;;;2.70;;
51971;SDS011;37991;49.662;10.060;2022-09-17T09:50:14;9.65;;;2.15;;
51971;SDS011;37991;49.662;10.060;2022-09-17T09:53:13;8.63;;;2.30;;
51971;SDS011;37991;49.662;10.060;2022-09-17T09:56:00;5.72;;;2.03;;
51971;SDS011;37991;49.662;10.060;2022-09-17T09:58:37;7.38;;;2.08;;
51971;SDS011;37991;49.662;10.060;2022-09-17T10:01:11;7.30;;;2.45;;
51971;SDS011;37991;49.662;10.060;2022-09-17T10:03:40;6.70;;;2.38;;
51971;SDS011;37991;49.662;10.060;2022-09-17T10:06:07;5.38;;;1.85;;
51971;SDS011;37991;49.662;10.060;2022-09-17T10:08:35;5.78;;;2.28;;
51971;SDS011;37991;49.662;10.060;2022-09-17T10:11:03;6.65;;;2.15;;
51971;SDS011;37991;49.662;10.060;2022-09-17T10:13:31;7.57;;;2.10;;
51971;SDS011;37991;49.662;10.060;2022-09-17T10:18:46;6.68;;;2.38;;
51971;SDS011;37991;49.662;10.060;2022-09-17T10:21:29;6.53;;;2.10;;
51971;SDS011;37991;49.662;10.060;2022-09-17T10:23:54;5.82;;;1.70;;
51971;SDS011;37991;49.662;10.060;2022-09-17T10:26:33;4.88;;;1.80;;
51971;SDS011;37991;49.662;10.060;2022-09-17T10:29:01;4.95;;;1.77;;
51971;SDS011;37991;49.662;10.060;2022-09-17T10:31:44;5.80;;;1.77;;
51971;SDS011;37991;49.662;10.060;2022-09-17T10:34:18;7.43;;;3.05;;
51971;SDS011;37991;49.662;10.060;2022-09-17T10:36:50;4.10;;;1.55;;
51971;SDS011;37991;49.662;10.060;2022-09-17T10:39:22;7.53;;;2.00;;
51971;SDS011;37991;49.662;10.060;2022-09-17T10:42:13;5.82;;;2.03;;
51971;SDS011;37991;49.662;10.060;2022-09-17T10:44:53;3.58;;;1.50;;
51971;SDS011;37991;49.662;10.060;2022-09-17T10:47:21;5.50;;;1.70;;
51971;SDS011;37991;49.662;10.060;2022-09-17T10:49:59;5.55;;;1.70;;
51971;SDS011;37991;49.662;10.060;2022-09-17T10:52:32;3.00;;;1.70;;
51971;SDS011;37991;49.662;10.060;2022-09-17T10:55:04;3.67;;;1.90;;
51971;SDS011;37991;49.662;10.060;2022-09-17T11:00:21;4.10;;;2.00;;
51971;SDS011;37991;49.662;10.060;2022-09-17T11:10:52;3.25;;;2.05;;
51971;SDS011;37991;49.662;10.060;2022-09-17T11:13:42;4.00;;;2.20;;
51971;SDS011;37991;49.662;10.060;2022-09-17T11:16:33;6.78;;;2.00;;
51971;SDS011;37991;49.662;10.060;2022-09-17T11:19:07;3.10;;;2.00;;
51971;SDS011;37991;49.662;10.060;2022-09-17T11:21:49;3.72;;;1.55;;
51971;SDS011;37991;49.662;10.060;2022-09-17T11:24:36;4.35;;;1.67;;
51971;SDS011;37991;49.662;10.060;2022-09-17T11:27:50;3.22;;;1.80;;
51971;SDS011;37991;49.662;10.060;2022-09-17T11:35:46;5.47;;;1.50;;
51971;SDS011;37991;49.662;10.060;2022-09-17T11:38:17;3.88;;;1.98;;
51971;SDS011;37991;49.662;10.060;2022-09-17T11:43:20;3.13;;;1.38;;
51971;SDS011;37991;49.662;10.060;2022-09-17T11:45:51;4.57;;;1.50;;
51971;SDS011;37991;49.662;10.060;2022-09-17T11:48:24;4.03;;;1.67;;
51971;SDS011;37991;49.662;10.060;2022-09-17T11:51:18;3.43;;;1.60;;
51971;SDS011;37991;49.662;10.060;2022-09-17T11:53:52;1.65;;;1.55;;
51971;SDS011;37991;49.662;10.060;2022-09-17T11:56:43;4.95;;;1.63;;
51971;SDS011;37991;49.662;10.060;2022-09-17T12:01:51;9.13;;;1.70;;
51971;SDS011;37991;49.662;10.060;2022-09-17T12:09:48;3.10;;;1.20;;
51971;SDS011;37991;49.662;10.060;2022-09-17T12:12:21;3.03;;;1.50;;
51971;SDS011;37991;49.662;10.060;2022-09-17T12:14:50;2.40;;;1.35;;
51971;SDS011;37991;49.662;10.060;2022-09-17T12:17:30;5.10;;;1.23;;
51971;SDS011;37991;49.662;10.060;2022-09-17T12:20:03;4.22;;;1.20;;
51971;SDS011;37991;49.662;10.060;2022-09-17T12:22:35;3.95;;;1.40;;
51971;SDS011;37991;49.662;10.060;2022-09-17T12:25:05;2.67;;;1.50;;
51971;SDS011;37991;49.662;10.060;2022-09-17T12:30:23;1.98;;;1.05;;
51971;SDS011;37991;49.662;10.060;2022-09-17T12:33:02;5.40;;;1.30;;
51971;SDS011;37991;49.662;10.060;2022-09-17T12:35:41;3.63;;;1.58;;
51971;SDS011;37991;49.662;10.060;2022-09-17T12:40:50;2.22;;;1.40;;
51971;SDS011;37991;49.662;10.060;2022-09-17T12:48:53;2.63;;;1.02;;
51971;SDS011;37991;49.662;10.060;2022-09-17T13:00:11;2.10;;;1.27;;
51971;SDS011;37991;49.662;10.060;2022-09-17T13:24:26;3.28;;;1.00;;
51971;SDS011;37991;49.662;10.060;2022-09-17T13:26:55;2.25;;;1.00;;
51971;SDS011;37991;49.662;10.060;2022-09-17T13:35:41;3.35;;;1.00;;
51971;SDS011;37991;49.662;10.060;2022-09-17T13:40:20;4.10;;;1.15;;
51971;SDS011;37991;49.662;10.060;2022-09-17T13:42:53;2.00;;;1.00;;
51971;SDS011;37991;49.662;10.060;2022-09-17T13:45:30;5.43;;;1.58;;
51971;SDS011;37991;49.662;10.060;2022-09-17T13:48:06;2.65;;;1.30;;
51971;SDS011;37991;49.662;10.060;2022-09-17T13:50:35;2.58;;;1.33;;
51971;SDS011;37991;49.662;10.060;2022-09-17T13:53:05;4.43;;;1.00;;
51971;SDS011;37991;49.662;10.060;2022-09-17T13:55:46;2.25;;;1.50;;
51971;SDS011;37991;49.662;10.060;2022-09-17T14:13:45;4.97;;;1.40;;
51971;SDS011;37991;49.662;10.060;2022-09-17T14:16:24;3.10;;;0.90;;
51971;SDS011;37991;49.662;10.060;2022-09-17T14:27:16;5.10;;;0.98;;
51971;SDS011;37991;49.662;10.060;2022-09-17T14:32:30;3.45;;;0.52;;
51971;SDS011;37991;49.662;10.060;2022-09-17T14:35:00;1.45;;;0.70;;
51971;SDS011;37991;49.662;10.060;2022-09-17T14:37:28;1.98;;;0.73;;
51971;SDS011;37991;49.662;10.060;2022-09-17T14:39:54;3.35;;;0.60;;
51971;SDS011;37991;49.662;10.060;2022-09-17T14:42:20;1.15;;;0.63;;
51971;SDS011;37991;49.662;10.060;2022-09-17T14:45:01;1.25;;;0.60;;
51971;SDS011;37991;49.662;10.060;2022-09-17T14:47:38;1.20;;;0.75;;
51971;SDS011;37991;49.662;10.060;2022-09-17T14:52:58;1.38;;;1.05;;
51971;SDS011;37991;49.662;10.060;2022-09-17T14:55:39;4.60;;;0.95;;
51971;SDS011;37991;49.662;10.060;2022-09-17T14:58:18;2.60;;;0.60;;
51971;SDS011;37991;49.662;10.060;2022-09-17T15:00:52;2.10;;;0.75;;
51971;SDS011;37991;49.662;10.060;2022-09-17T15:03:21;2.38;;;0.50;;
51971;SDS011;37991;49.662;10.060;2022-09-17T15:05:47;2.42;;;1.02;;
51971;SDS011;37991;49.662;10.060;2022-09-17T15:08:16;2.10;;;0.68;;
51971;SDS011;37991;49.662;10.060;2022-09-17T15:10:54;1.98;;;0.65;;
51971;SDS011;37991;49.662;10.060;2022-09-17T15:18:30;9.45;;;0.95;;
51971;SDS011;37991;49.662;10.060;2022-09-17T15:20:59;4.07;;;1.15;;
51971;SDS011;37991;49.662;10.060;2022-09-17T15:23:28;2.33;;;0.60;;
51971;SDS011;37991;49.662;10.060;2022-09-17T15:25:57;4.43;;;1.15;;
51971;SDS011;37991;49.662;10.060;2022-09-17T15:28:30;3.40;;;0.43;;
51971;SDS011;37991;49.662;10.060;2022-09-17T15:30:57;2.67;;;0.60;;
51971;SDS011;37991;49.662;10.060;2022-09-17T15:33:23;1.63;;;0.50;;
51971;SDS011;37991;49.662;10.060;2022-09-17T15:38:27;4.70;;;0.73;;
51971;SDS011;37991;49.662;10.060;2022-09-17T15:40:54;2.60;;;0.50;;
51971;SDS011;37991;49.662;10.060;2022-09-17T15:43:36;5.57;;;0.82;;
51971;SDS011;37991;49.662;10.060;2022-09-17T15:46:22;0.77;;;0.40;;
51971;SDS011;37991;49.662;10.060;2022-09-17T15:48:53;2.45;;;0.60;;
51971;SDS011;37991;49.662;10.060;2022-09-17T15:51:21;1.75;;;0.65;;
51971;SDS011;37991;49.662;10.060;2022-09-17T15:53:59;1.75;;;0.60;;
51971;SDS011;37991;49.662;10.060;2022-09-17T15:56:29;2.00;;;0.40;;
51971;SDS011;37991;49.662;10.060;2022-09-17T15:59:02;2.13;;;0.52;;
51971;SDS011;37991;49.662;10.060;2022-09-17T16:01:49;2.05;;;0.70;;
51971;SDS011;37991;49.662;10.060;2022-09-17T16:04:18;2.88;;;0.88;;
51971;SDS011;37991;49.662;10.060;2022-09-17T16:07:16;4.05;;;1.00;;
51971;SDS011;37991;49.662;10.060;2022-09-17T16:12:19;7.53;;;1.10;;
51971;SDS011;37991;49.662;10.060;2022-09-17T16:14:47;4.40;;;1.17;;
51971;SDS011;37991;49.662;10.060;2022-09-17T16:19:46;1.85;;;1.05;;
51971;SDS011;37991;49.662;10.060;2022-09-17T16:22:11;4.22;;;1.00;;
51971;SDS011;37991;49.662;10.060;2022-09-17T16:24:37;3.75;;;0.93;;
51971;SDS011;37991;49.662;10.060;2022-09-17T16:27:02;4.03;;;1.00;;
51971;SDS011;37991;49.662;10.060;2022-09-17T16:29:29;3.53;;;0.80;;
51971;SDS011;37991;49.662;10.060;2022-09-17T16:31:54;1.17;;;0.70;;
51971;SDS011;37991;49.662;10.060;2022-09-17T16:34:20;1.80;;;0.88;;
51971;SDS011;37991;49.662;10.060;2022-09-17T16:36:46;2.60;;;0.73;;
51971;SDS011;37991;49.662;10.060;2022-09-17T16:39:11;6.38;;;0.85;;
51971;SDS011;37991;49.662;10.060;2022-09-17T16:41:36;2.88;;;1.00;;
51971;SDS011;37991;49.662;10.060;2022-09-17T16:44:02;1.35;;;0.90;;
51971;SDS011;37991;49.662;10.060;2022-09-17T16:46:27;3.05;;;1.30;;
51971;SDS011;37991;49.662;10.060;2022-09-17T16:48:52;1.52;;;0.90;;
51971;SDS011;37991;49.662;10.060;2022-09-17T16:51:18;3.58;;;1.27;;
51971;SDS011;37991;49.662;10.060;2022-09-17T16:53:43;1.38;;;1.25;;
51971;SDS011;37991;49.662;10.060;2022-09-17T16:56:10;2.85;;;0.90;;
51971;SDS011;37991;49.662;10.060;2022-09-17T16:58:37;1.00;;;0.77;;
51971;SDS011;37991;49.662;10.060;2022-09-17T17:01:09;2.45;;;1.02;;
51971;SDS011;37991;49.662;10.060;2022-09-17T17:03:36;1.15;;;0.98;;
51971;SDS011;37991;49.662;10.060;2022-09-17T17:06:01;2.78;;;1.00;;
51971;SDS011;37991;49.662;10.060;2022-09-17T17:08:27;2.13;;;1.10;;
51971;SDS011;37991;49.662;10.060;2022-09-17T17:10:55;1.77;;;0.70;;
51971;SDS011;37991;49.662;10.060;2022-09-17T17:13:20;1.95;;;0.80;;
51971;SDS011;37991;49.662;10.060;2022-09-17T17:15:45;1.75;;;0.90;;
51971;SDS011;37991;49.662;10.060;2022-09-17T17:18:10;5.13;;;1.00;;
51971;SDS011;37991;49.662;10.060;2022-09-17T17:20:36;3.65;;;0.90;;
51971;SDS011;37991;49.662;10.060;2022-09-17T17:23:01;3.17;;;0.90;;
51971;SDS011;37991;49.662;10.060;2022-09-17T17:25:28;1.15;;;1.02;;
51971;SDS011;37991;49.662;10.060;2022-09-17T17:27:54;1.27;;;0.90;;
51971;SDS011;37991;49.662;10.060;2022-09-17T17:30:19;4.63;;;1.10;;
51971;SDS011;37991;49.662;10.060;2022-09-17T17:32:49;2.42;;;1.48;;
51971;SDS011;37991;49.662;10.060;2022-09-17T17:35:16;1.40;;;1.13;;
51971;SDS011;37991;49.662;10.060;2022-09-17T17:37:42;1.98;;;1.00;;
51971;SDS011;37991;49.662;10.060;2022-09-17T17:40:08;1.52;;;0.85;;